Cunningham, Washington
Current Conditions -  °F | °C
As of 2:52 AM on Friday 24 Oct 2014 (Local Time) from KMWH Reporting Station
Scattered Clouds Scattered Clouds  
Wind Chill: 42°   Ceiling: Unl
Heat Index: 42°   Visibility: 10mi
Dew Point: 38°   Wind: 3mph
Humidity: 85%   Direction: 50°NE
Pressure: 30.03"   Gusts: NA
Location:  46.82°N, 118.81°W
Report Text: KMWH 240952Z AUTO 05003KT 10SM SCT120 06/03 A3003 RMK AO2 SLP171 T00560033 TSNO
Loading
Personal Weather Stations






























Interactive Weather Map
Tropical Storm Tracking
New forecast layout! Learn more

10-Day Weather Forecast

Advertisements
Track Severe Weather on mobile